Time;durP1;ratioP1;P1;durP2;ratioP2;P2;SDS_P1;SDS_P2;PMS_P1;PMS_P2;Temp;Humidity;BMP_temperature;BMP_pressure;BME280_temperature;BME280_humidity;BME280_pressure;Samples;Min_cycle;Max_cycle;Signal;HPM_P1;HPM_P2
2023/03/24 00:02:36;;;;;;;3.57;2.87;;;;;;;18.52;48.75;97933.06;7080196;28;20227;-77
2023/03/24 00:06:01;;;;;;;3.17;2.33;;;;;;;18.55;48.74;97907.94;7083530;27;20207;-75
2023/03/24 00:09:22;;;;;;;3.83;2.70;;;;;;;18.86;47.60;97895.81;7085511;27;20223;-77
2023/03/24 00:12:44;;;;;;;3.57;3.27;;;;;;;18.82;47.41;97895.53;7085515;27;20250;-76
2023/03/24 00:16:08;;;;;;;3.37;2.60;;;;;;;18.47;48.32;97882.03;7086016;27;20208;-75
2023/03/24 00:19:29;;;;;;;4.87;2.83;;;;;;;18.52;49.29;97889.38;7085321;27;20340;-77
2023/03/24 00:22:57;;;;;;;2.60;2.40;;;;;;;18.65;48.18;97884.16;7084936;27;20224;-75
2023/03/24 00:26:18;;;;;;;3.73;2.73;;;;;;;18.67;48.27;97886.59;7085827;27;20639;-76
2023/03/24 00:29:41;;;;;;;2.47;2.27;;;;;;;18.32;48.36;97864.84;7084525;27;20227;-76
2023/03/24 00:33:02;;;;;;;2.93;2.60;;;;;;;18.53;47.49;97869.19;7085571;27;20242;-75
2023/03/24 00:36:27;;;;;;;4.23;2.60;;;;;;;18.77;46.79;97854.63;7083648;27;20212;-76
2023/03/24 00:39:50;;;;;;;4.37;3.17;;;;;;;18.43;48.05;97861.00;7084367;27;20184;-76
2023/03/24 00:43:12;;;;;;;4.30;2.70;;;;;;;18.73;47.31;97853.53;7085283;27;20699;-75
2023/03/24 00:46:36;;;;;;;3.00;2.67;;;;;;;18.77;46.62;97848.31;7085047;27;20208;-76
2023/03/24 00:50:00;;;;;;;2.90;2.37;;;;;;;18.82;46.00;97840.13;7084333;27;20879;-76
2023/03/24 00:53:24;;;;;;;3.50;2.53;;;;;;;18.81;45.78;97835.75;7084149;27;20283;-76
2023/03/24 00:56:48;;;;;;;2.43;2.23;;;;;;;19.05;44.99;97820.31;7084605;27;20208;-76
2023/03/24 01:00:15;;;;;;;3.17;2.40;;;;;;;19.34;43.55;97816.56;7083197;27;20203;-75
2023/03/24 01:03:47;;;;;;;2.50;2.30;;;;;;;19.28;43.55;97811.44;7084278;27;20774;-75
2023/03/24 01:07:10;;;;;;;3.60;2.50;;;;;;;19.18;44.35;97811.47;7083850;27;20266;-76
2023/03/24 01:10:33;;;;;;;3.90;2.80;;;;;;;19.19;44.15;97803.00;7084105;27;20285;-76
2023/03/24 01:13:56;;;;;;;3.83;2.60;;;;;;;18.83;44.25;97798.03;7084019;27;20239;-76
2023/03/24 01:17:21;;;;;;;3.83;2.80;;;;;;;19.07;44.05;97796.25;7084397;27;20726;-75
2023/03/24 01:20:44;;;;;;;2.50;2.30;;;;;;;19.12;44.12;97777.09;7083025;27;20199;-75
2023/03/24 01:24:06;;;;;;;6.20;2.50;;;;;;;19.07;44.38;97763.47;7084151;27;20318;-75
2023/03/24 01:27:28;;;;;;;2.70;2.50;;;;;;;19.20;43.92;97773.75;7083674;27;20265;-75
2023/03/24 01:30:51;;;;;;;5.20;2.90;;;;;;;19.39;43.48;97759.13;7083072;27;20204;-75
2023/03/24 01:34:12;;;;;;;4.00;2.90;;;;;;;19.09;44.47;97767.53;7083579;27;20219;-75
2023/03/24 01:37:34;;;;;;;3.33;2.90;;;;;;;19.06;44.37;97749.00;7082305;27;20681;-75
2023/03/24 01:40:56;;;;;;;3.43;3.13;;;;;;;19.16;44.06;97745.38;7082823;27;20581;-75
2023/03/24 01:44:26;;;;;;;3.10;2.80;;;;;;;18.75;45.04;97750.28;7083281;27;20204;-75
2023/03/24 01:47:49;;;;;;;3.17;2.70;;;;;;;18.66;45.31;97751.16;7083040;27;20227;-75
2023/03/24 01:51:15;;;;;;;2.77;2.57;;;;;;;18.29;46.32;97742.59;7079414;27;20208;-75
2023/03/24 01:54:38;;;;;;;2.90;2.63;;;;;;;18.44;46.06;97748.84;7054878;28;20212;-76
2023/03/24 01:58:01;;;;;;;3.13;2.67;;;;;;;18.51;45.66;97732.97;7054808;28;20202;-75
2023/03/24 02:01:25;;;;;;;2.97;2.60;;;;;;;18.37;45.83;97731.97;7053696;28;20233;-76
2023/03/24 02:04:52;;;;;;;4.47;2.60;;;;;;;18.29;46.04;97740.66;7054769;28;20346;-75
2023/03/24 02:08:18;;;;;;;3.40;2.57;;;;;;;18.42;45.36;97728.38;7054566;28;20215;-76
2023/03/24 02:11:40;;;;;;;2.73;2.53;;;;;;;18.15;45.50;97708.81;7053523;28;20231;-75
2023/03/24 02:15:03;;;;;;;3.17;2.40;;;;;;;18.25;45.77;97719.69;7053930;28;20205;-77
2023/03/24 02:18:28;;;;;;;3.10;2.53;;;;;;;18.29;45.20;97718.03;7053832;28;20202;-76
2023/03/24 02:22:17;;;;;;;2.70;2.50;;;;;;;18.11;45.37;97724.13;7053574;28;20237;-75
2023/03/24 02:26:11;;;;;;;3.00;2.50;;;;;;;18.34;44.94;97723.50;7054246;28;20631;-75
2023/03/24 02:30:09;;;;;;;2.30;2.13;;;;;;;18.55;43.88;97716.81;7052866;28;20664;-75
2023/03/24 02:33:55;;;;;;;2.40;2.20;;;;;;;18.83;43.69;97722.41;7054044;28;20224;-75
2023/03/24 02:37:33;;;;;;;3.03;2.67;;;;;;;18.96;43.03;97720.94;7052437;28;20196;-75
2023/03/24 02:41:00;;;;;;;2.77;2.43;;;;;;;19.08;42.35;97724.09;7052999;28;20513;-75
2023/03/24 02:44:28;;;;;;;2.70;2.50;;;;;;;19.04;42.85;97726.59;7053632;28;20241;-75
2023/03/24 02:48:02;;;;;;;2.63;2.43;;;;;;;19.01;42.76;97715.44;7053446;28;20209;-75
2023/03/24 02:51:27;;;;;;;2.70;2.47;;;;;;;18.82;43.07;97714.47;7052441;28;20286;-75
2023/03/24 02:54:51;;;;;;;3.13;2.20;;;;;;;18.83;42.62;97716.13;7053671;28;20245;-75
2023/03/24 02:58:19;;;;;;;3.67;2.33;;;;;;;18.78;42.30;97716.13;7052965;28;20204;-75
2023/03/24 03:01:44;;;;;;;2.00;1.90;;;;;;;19.42;41.43;97692.16;7052554;28;20698;-75
2023/03/24 03:05:12;;;;;;;4.47;2.50;;;;;;;19.25;41.42;97700.78;7052929;28;20321;-75
2023/03/24 03:08:35;;;;;;;2.20;2.00;;;;;;;19.31;41.13;97696.06;7052993;28;20720;-75
2023/03/24 03:11:58;;;;;;;4.33;2.37;;;;;;;19.56;40.21;97693.91;7052137;28;20228;-75
2023/03/24 03:15:23;;;;;;;2.33;2.10;;;;;;;19.43;41.22;97694.59;7053003;28;20205;-75
2023/03/24 03:18:50;;;;;;;2.43;2.23;;;;;;;19.71;40.62;97692.94;7052606;28;20691;-75
2023/03/24 03:22:15;;;;;;;2.40;2.20;;;;;;;19.61;40.23;97690.31;7051784;28;20244;-75
2023/03/24 03:25:41;;;;;;;2.93;2.07;;;;;;;19.99;39.43;97686.59;7052250;28;20195;-75
2023/03/24 03:29:05;;;;;;;2.40;2.20;;;;;;;20.31;39.02;97676.63;7052596;28;20218;-77
2023/03/24 03:32:32;;;;;;;3.00;2.30;;;;;;;20.44;38.79;97689.59;7069449;27;20256;-75
2023/03/24 03:35:59;;;;;;;2.50;2.30;;;;;;;20.33;39.35;97681.81;7079319;27;20199;-75
2023/03/24 03:39:23;;;;;;;3.00;2.57;;;;;;;20.08;39.87;97665.72;7079354;27;20242;-75
2023/03/24 03:42:45;;;;;;;3.20;2.33;;;;;;;20.18;40.03;97680.09;7079812;27;20224;-80
2023/03/24 03:46:07;;;;;;;2.40;2.20;;;;;;;20.19;39.82;97669.94;7081000;27;20682;-77
2023/03/24 03:49:31;;;;;;;4.27;3.33;;;;;;;19.91;40.49;97671.63;7080531;27;20266;-77
2023/03/24 03:52:52;;;;;;;3.83;3.10;;;;;;;20.26;40.53;97682.19;7074599;27;20605;-76
2023/03/24 03:56:17;;;;;;;2.67;2.47;;;;;;;19.84;41.21;97662.97;7080430;28;20214;-77
2023/03/24 03:59:39;;;;;;;3.37;2.40;;;;;;;19.51;41.78;97674.03;7080593;28;20209;-78
2023/03/24 04:03:21;;;;;;;2.20;2.00;;;;;;;19.42;42.40;97676.56;7080865;28;20224;-77
2023/03/24 04:06:52;;;;;;;3.33;2.30;;;;;;;19.18;43.00;97666.66;7080176;28;20298;-77
2023/03/24 04:10:21;;;;;;;2.47;2.27;;;;;;;19.20;42.69;97680.84;7079529;28;20662;-77
2023/03/24 04:13:49;;;;;;;2.93;2.70;;;;;;;19.33;41.87;97677.50;7079793;28;20228;-77
2023/03/24 04:17:16;;;;;;;2.73;2.23;;;;;;;19.41;41.54;97679.59;7079945;28;20206;-77
2023/03/24 04:20:45;;;;;;;4.47;2.40;;;;;;;19.47;41.77;97683.91;7079550;28;20208;-77
2023/03/24 04:24:17;;;;;;;3.00;2.27;;;;;;;19.21;41.47;97680.59;7079459;28;20223;-77
2023/03/24 04:27:45;;;;;;;2.40;2.20;;;;;;;19.24;41.81;97680.03;7079937;28;20733;-77
2023/03/24 04:31:13;;;;;;;2.90;2.07;;;;;;;19.35;41.43;97684.28;7078817;28;20187;-77
2023/03/24 04:34:39;;;;;;;2.00;1.90;;;;;;;19.68;40.87;97679.81;7079982;28;20283;-77
2023/03/24 04:38:04;;;;;;;2.40;2.20;;;;;;;19.27;41.53;97686.84;7078539;28;20200;-77
2023/03/24 04:41:29;;;;;;;2.63;2.43;;;;;;;19.56;41.25;97668.47;7079152;28;20231;-77
2023/03/24 04:44:51;;;;;;;4.03;2.50;;;;;;;19.67;41.60;97664.53;7080327;28;20328;-77
2023/03/24 04:48:12;;;;;;;3.20;2.90;;;;;;;19.64;41.61;97662.41;7079626;28;20230;-76
2023/03/24 04:51:34;;;;;;;4.23;2.50;;;;;;;19.63;41.84;97666.25;7081064;27;20771;-77
2023/03/24 04:54:56;;;;;;;5.60;2.53;;;;;;;19.50;42.69;97680.56;7085094;27;20329;-78
2023/03/24 04:58:20;;;;;;;3.70;2.53;;;;;;;19.43;41.82;97680.94;7084224;27;20200;-77
2023/03/24 05:01:48;;;;;;;2.60;2.40;;;;;;;19.28;41.50;97688.47;7083856;27;20305;-78
2023/03/24 05:05:10;;;;;;;2.40;2.20;;;;;;;18.98;42.86;97705.88;7084274;27;20207;-78
2023/03/24 05:08:32;;;;;;;2.57;2.00;;;;;;;19.17;41.53;97719.69;7084115;27;20235;-78
2023/03/24 05:11:54;;;;;;;2.57;2.13;;;;;;;19.66;40.44;97721.16;7083485;27;20595;-77
2023/03/24 05:15:17;;;;;;;2.00;1.90;;;;;;;20.08;39.78;97736.84;7084024;27;20199;-78
2023/03/24 05:18:38;;;;;;;2.57;2.30;;;;;;;20.38;39.26;97745.53;7084223;27;20201;-77
2023/03/24 05:21:59;;;;;;;1.87;1.77;;;;;;;19.98;40.28;97754.19;7082818;27;20282;-77
2023/03/24 05:25:21;;;;;;;3.60;1.77;;;;;;;20.12;40.14;97749.69;7083420;27;20208;-77
2023/03/24 05:28:43;;;;;;;4.70;2.23;;;;;;;20.07;40.38;97757.94;7083693;27;20219;-77
2023/03/24 05:32:06;;;;;;;2.20;2.00;;;;;;;19.84;40.90;97758.72;7082673;27;20223;-77
2023/03/24 05:35:27;;;;;;;3.67;2.40;;;;;;;19.77;41.47;97782.88;7083352;27;20206;-79
2023/03/24 05:38:49;;;;;;;2.30;2.20;;;;;;;19.69;41.93;97790.88;7082595;27;20202;-78
2023/03/24 05:42:10;;;;;;;3.10;2.30;;;;;;;19.82;42.88;97798.41;7083457;27;20709;-80
2023/03/24 05:45:32;;;;;;;4.47;2.07;;;;;;;20.18;42.73;97811.47;7084774;27;20312;-79
2023/03/24 05:48:55;;;;;;;2.03;1.93;;;;;;;19.60;44.78;97818.03;7084414;27;20716;-78
2023/03/24 05:52:16;;;;;;;2.70;2.20;;;;;;;19.31;46.67;97841.75;7066270;27;20715;-77
2023/03/24 05:55:39;;;;;;;2.67;2.40;;;;;;;19.28;47.80;97836.84;7074388;27;20211;-77
2023/03/24 05:59:00;;;;;;;2.33;2.10;;;;;;;19.28;48.84;97844.25;7081928;27;20199;-78
2023/03/24 06:02:21;;;;;;;2.50;2.30;;;;;;;19.36;48.40;97828.06;7084645;27;20248;-75
2023/03/24 06:05:46;;;;;;;3.13;2.53;;;;;;;19.37;48.52;97845.25;7098582;27;20212;-77
2023/03/24 06:09:07;;;;;;;2.73;2.53;;;;;;;19.68;48.48;97839.28;7082272;27;20232;-78
2023/03/24 06:12:30;;;;;;;3.40;2.50;;;;;;;19.35;48.90;97831.88;7081652;27;20240;-76
2023/03/24 06:15:53;;;;;;;2.90;2.60;;;;;;;19.49;49.29;97832.88;7082821;27;20207;-78
2023/03/24 06:19:14;;;;;;;2.70;2.50;;;;;;;19.62;48.82;97837.69;7083503;27;20226;-80
2023/03/24 06:22:37;;;;;;;3.43;2.73;;;;;;;19.76;49.01;97824.97;7082536;27;20689;-78
2023/03/24 06:26:00;;;;;;;3.33;3.03;;;;;;;19.78;48.85;97814.59;7081758;27;20266;-78
2023/03/24 06:29:21;;;;;;;4.07;3.03;;;;;;;19.60;48.29;97807.09;7081533;27;20224;-74
2023/03/24 06:32:45;;;;;;;4.30;2.80;;;;;;;19.29;49.60;97807.59;7080919;27;20573;-76
2023/03/24 06:36:07;;;;;;;3.87;2.97;;;;;;;19.58;49.80;97844.03;7081398;27;20207;-76
2023/03/24 06:39:30;;;;;;;2.90;2.70;;;;;;;19.27;50.31;97832.47;7081897;27;20681;-77
2023/03/24 06:42:51;;;;;;;3.23;2.93;;;;;;;19.31;50.62;97828.09;7081279;27;20275;-77
2023/03/24 06:46:13;;;;;;;3.17;2.80;;;;;;;19.33;50.90;97841.47;7081518;27;20408;-78
2023/03/24 06:49:36;;;;;;;3.90;2.90;;;;;;;19.44;50.61;97841.13;7079471;27;20312;-77
2023/03/24 06:52:57;;;;;;;3.30;3.00;;;;;;;19.23;51.94;97855.22;7052638;28;20600;-76
2023/03/24 06:56:20;;;;;;;3.00;2.80;;;;;;;19.24;51.77;97851.38;7053061;28;20205;-76
2023/03/24 06:59:41;;;;;;;3.07;2.80;;;;;;;19.01;51.76;97831.00;7051869;28;20208;-76
2023/03/24 07:03:04;;;;;;;3.60;2.73;;;;;;;19.04;50.92;97851.47;7058635;27;20276;-79
2023/03/24 07:06:26;;;;;;;3.03;2.73;;;;;;;19.41;49.21;97852.59;7081190;27;20208;-77
2023/03/24 07:09:49;;;;;;;3.77;2.80;;;;;;;19.19;49.40;97849.47;7080886;27;20285;-83
2023/03/24 07:13:12;;;;;;;3.10;2.80;;;;;;;18.93;50.75;97866.28;7079765;27;20355;-78
2023/03/24 07:16:33;;;;;;;2.87;2.67;;;;;;;18.95;50.21;97837.59;7063953;27;20274;-77
2023/03/24 07:19:55;;;;;;;3.37;2.87;;;;;;;18.51;52.51;97853.06;7078016;27;20251;-78
2023/03/24 07:23:16;;;;;;;4.47;3.60;;;;;;;19.02;50.90;97854.47;7077665;27;20306;-76
2023/03/24 07:26:38;;;;;;;4.50;3.67;;;;;;;18.77;51.62;97872.91;7080514;27;20347;-76
2023/03/24 07:30:01;;;;;;;3.23;2.97;;;;;;;19.01;51.56;97865.69;7079090;27;20211;-76
2023/03/24 07:33:23;;;;;;;3.00;2.80;;;;;;;18.53;53.56;97871.91;7068623;27;20225;-76
2023/03/24 07:36:45;;;;;;;3.33;3.03;;;;;;;18.78;53.23;97880.00;7100977;27;20199;-77
2023/03/24 07:40:10;;;;;;;3.13;2.60;;;;;;;18.27;55.03;97894.88;7085992;27;20196;-78
2023/03/24 07:43:32;;;;;;;3.80;3.00;;;;;;;18.09;56.20;97890.81;7080164;27;20226;-77
2023/03/24 07:46:55;;;;;;;3.83;3.30;;;;;;;18.18;56.33;97897.34;7080029;27;20681;-76
2023/03/24 07:50:17;;;;;;;3.47;3.17;;;;;;;18.39;56.10;97911.81;7078911;27;20310;-76
2023/03/24 07:53:38;;;;;;;3.63;2.77;;;;;;;17.50;58.54;97913.41;7106124;27;20227;-77
2023/03/24 07:57:00;;;;;;;4.70;3.07;;;;;;;17.43;59.21;97910.97;7108488;27;20207;-76
2023/03/24 08:00:23;;;;;;;3.30;2.73;;;;;;;17.96;58.35;97915.09;7108092;27;20657;-79
2023/03/24 08:03:47;;;;;;;4.87;3.10;;;;;;;17.87;58.43;97917.53;7107939;27;20234;-77
2023/03/24 08:07:11;;;;;;;4.90;3.00;;;;;;;17.41;59.83;97915.88;7108494;27;20685;-77
2023/03/24 08:10:32;;;;;;;3.53;3.23;;;;;;;17.08;60.89;97913.59;7105470;27;20230;-75
2023/03/24 08:13:54;;;;;;;3.97;3.50;;;;;;;17.37;60.50;97903.00;7067747;28;20254;-75
2023/03/24 08:17:15;;;;;;;3.00;2.80;;;;;;;17.69;59.57;97909.91;7067560;28;20255;-77
2023/03/24 08:20:38;;;;;;;3.63;3.33;;;;;;;18.00;59.02;97918.91;7078432;28;20252;-76
2023/03/24 08:24:00;;;;;;;3.77;3.20;;;;;;;17.72;59.75;97920.28;7062773;28;20251;-75
2023/03/24 08:27:22;;;;;;;3.53;3.00;;;;;;;18.13;58.79;97915.63;7055272;28;20233;-75
2023/03/24 08:30:44;;;;;;;5.00;3.60;;;;;;;18.37;58.52;97919.44;7055592;28;20224;-77
2023/03/24 08:34:06;;;;;;;3.73;3.10;;;;;;;17.84;59.66;97893.56;7056579;28;20223;-75
2023/03/24 08:37:29;;;;;;;3.60;3.30;;;;;;;17.62;60.77;97867.63;7056796;28;20720;-75
2023/03/24 08:40:51;;;;;;;3.43;3.00;;;;;;;17.84;60.64;97882.66;7055324;28;20278;-78
2023/03/24 08:44:13;;;;;;;3.50;3.20;;;;;;;17.75;60.39;97856.22;7055035;27;20225;-76
2023/03/24 08:47:35;;;;;;;3.20;2.90;;;;;;;18.14;59.48;97814.41;7065871;27;20240;-75
2023/03/24 08:51:11;;;;;;;5.00;2.87;;;;;;;17.97;59.92;97791.25;7082639;27;20363;-82
2023/03/24 08:54:34;;;;;;;4.50;3.63;;;;;;;17.69;60.70;97784.50;7084367;27;20244;-77
2023/03/24 08:57:56;;;;;;;3.53;3.23;;;;;;;17.83;60.63;97792.94;7084255;27;20207;-77
2023/03/24 09:01:18;;;;;;;3.33;3.03;;;;;;;18.16;59.30;97855.06;7083417;27;20260;-75
2023/03/24 09:04:41;;;;;;;3.80;2.83;;;;;;;18.01;59.16;97861.38;7084106;27;20200;-77
2023/03/24 09:08:02;;;;;;;3.30;3.00;;;;;;;18.14;58.82;97847.16;7084151;27;20200;-75
2023/03/24 09:11:25;;;;;;;3.37;3.07;;;;;;;18.52;58.13;97871.06;7083077;27;20241;-75
2023/03/24 09:14:48;;;;;;;3.63;2.90;;;;;;;18.47;58.19;97881.22;7083298;27;20290;-75
2023/03/24 09:18:10;;;;;;;3.17;2.90;;;;;;;17.99;59.00;97866.25;7083459;27;20218;-76
2023/03/24 09:21:31;;;;;;;3.03;2.77;;;;;;;18.00;59.96;97867.09;7082861;27;20227;-77
2023/03/24 09:24:53;;;;;;;3.40;3.10;;;;;;;18.71;58.17;97868.56;7083089;27;20208;-75
2023/03/24 09:28:16;;;;;;;3.70;3.40;;;;;;;18.90;56.82;97858.63;7061064;27;20204;-75
2023/03/24 09:31:37;;;;;;;2.90;2.70;;;;;;;18.28;58.31;97885.59;7054135;28;20278;-75
2023/03/24 09:34:59;;;;;;;3.10;2.73;;;;;;;17.79;59.71;97888.09;7054803;28;20572;-75
2023/03/24 09:38:20;;;;;;;3.50;2.80;;;;;;;17.81;59.78;97872.28;7076045;27;20208;-75
2023/03/24 09:41:44;;;;;;;4.57;3.67;;;;;;;18.00;59.38;97900.66;7076510;27;20221;-75
2023/03/24 09:45:13;;;;;;;2.80;2.60;;;;;;;18.42;58.86;97889.41;7082755;27;20201;-75
2023/03/24 09:48:38;;;;;;;5.43;3.67;;;;;;;18.33;58.99;97882.91;7080684;27;20233;-75
2023/03/24 09:52:03;;;;;;;3.10;2.90;;;;;;;18.60;57.84;97867.78;7080397;27;20223;-75
2023/03/24 09:55:26;;;;;;;3.17;2.87;;;;;;;18.53;58.26;97883.66;7079860;27;20216;-75
2023/03/24 09:58:51;;;;;;;3.57;2.90;;;;;;;18.86;57.31;97895.81;7081973;27;20206;-75
2023/03/24 10:02:16;;;;;;;2.80;2.60;;;;;;;19.17;55.84;97900.81;7072873;27;20570;-75
2023/03/24 10:05:44;;;;;;;4.40;3.10;;;;;;;19.56;55.81;97895.41;7053942;28;20329;-76
2023/03/24 10:09:17;;;;;;;5.43;2.77;;;;;;;19.12;55.67;97886.38;7081727;27;20260;-75
2023/03/24 10:12:39;;;;;;;3.00;2.67;;;;;;;19.47;54.36;97846.03;7080974;27;20230;-75
2023/03/24 10:16:05;;;;;;;3.03;2.63;;;;;;;19.91;53.55;97857.69;7082086;27;20206;-76
2023/03/24 10:19:37;;;;;;;3.03;2.37;;;;;;;20.69;51.96;97875.50;7081416;27;20282;-75
2023/03/24 10:23:01;;;;;;;2.50;2.30;;;;;;;20.78;50.91;97881.97;7082270;27;20590;-76
2023/03/24 10:26:31;;;;;;;3.33;2.17;;;;;;;19.69;52.97;97883.88;7082401;27;20213;-76
2023/03/24 10:29:54;;;;;;;2.80;2.20;;;;;;;20.30;51.29;97872.13;7083347;27;20221;-74
2023/03/24 10:33:17;;;;;;;2.63;2.17;;;;;;;20.23;51.85;97870.81;7082911;27;20236;-74
2023/03/24 10:36:40;;;;;;;2.37;2.20;;;;;;;19.35;52.37;97877.53;7081674;27;20202;-75
2023/03/24 10:40:05;;;;;;;2.23;2.13;;;;;;;19.71;51.60;97879.75;7071823;27;20570;-74
2023/03/24 10:43:27;;;;;;;3.47;1.87;;;;;;;20.08;51.49;97890.09;7052886;28;20221;-75
2023/03/24 10:46:51;;;;;;;2.40;2.20;;;;;;;20.17;50.19;97878.25;7078975;27;20203;-75
2023/03/24 10:50:12;;;;;;;2.37;2.10;;;;;;;19.78;51.32;97882.97;7079973;27;20237;-74
2023/03/24 10:53:36;;;;;;;2.23;2.03;;;;;;;19.98;50.72;97896.47;7080676;27;20233;-76
2023/03/24 10:57:03;;;;;;;2.20;1.83;;;;;;;20.58;49.14;97892.34;7075638;27;20204;-78
2023/03/24 11:00:28;;;;;;;2.13;2.03;;;;;;;20.45;48.59;97907.53;7080176;27;20191;-74
2023/03/24 11:03:50;;;;;;;2.73;2.30;;;;;;;20.54;48.55;97904.97;7081378;27;20613;-75
2023/03/24 11:07:16;;;;;;;2.30;2.10;;;;;;;19.90;49.48;97918.16;7080966;27;20199;-79
2023/03/24 11:10:39;;;;;;;1.80;1.60;;;;;;;20.12;47.50;97916.63;7080482;27;20207;-76
2023/03/24 11:14:02;;;;;;;1.67;1.57;;;;;;;19.91;47.17;97936.19;7059356;27;20257;-76
2023/03/24 11:17:24;;;;;;;1.67;1.57;;;;;;;20.04;46.45;97909.00;7060270;27;20205;-78
2023/03/24 11:20:47;;;;;;;1.60;1.50;;;;;;;19.83;46.75;97917.66;7080295;27;20561;-78
2023/03/24 11:24:11;;;;;;;1.57;1.47;;;;;;;20.02;46.23;97904.91;7080946;27;20589;-80
2023/03/24 11:27:41;;;;;;;1.60;1.50;;;;;;;20.21;46.75;97912.16;7080822;27;20288;-79
2023/03/24 11:31:07;;;;;;;2.47;2.20;;;;;;;21.17;44.74;97895.47;7051933;27;20213;-77
2023/03/24 11:34:32;;;;;;;3.13;2.23;;;;;;;21.17;45.00;97911.94;7052203;28;20624;-76
2023/03/24 11:37:54;;;;;;;2.03;1.80;;;;;;;20.69;44.45;97913.84;7051799;28;20210;-75
2023/03/24 11:41:20;;;;;;;3.20;1.70;;;;;;;20.73;44.63;97908.59;7050796;28;20201;-78
2023/03/24 11:44:45;;;;;;;1.67;1.57;;;;;;;20.42;45.57;97918.25;7051814;28;20357;-79
2023/03/24 11:48:16;;;;;;;1.50;1.40;;;;;;;20.32;45.04;97915.59;7051731;28;20286;-76
2023/03/24 11:51:40;;;;;;;2.57;1.70;;;;;;;20.28;45.30;97925.53;7050304;28;20315;-77
2023/03/24 11:55:01;;;;;;;1.90;1.60;;;;;;;20.14;44.99;97895.25;7058574;27;20205;-78
2023/03/24 11:58:28;;;;;;;1.60;1.50;;;;;;;20.40;44.38;97887.63;7079800;27;20324;-78
2023/03/24 12:01:59;;;;;;;1.70;1.60;;;;;;;20.88;43.48;97889.25;7078959;27;20563;-78
2023/03/24 12:05:26;;;;;;;1.37;1.20;;;;;;;19.96;44.30;97892.38;7078672;28;20577;-77
2023/03/24 12:08:56;;;;;;;1.60;1.50;;;;;;;19.88;45.02;97902.00;7079812;28;20273;-77
2023/03/24 12:12:23;;;;;;;2.00;1.40;;;;;;;20.04;44.19;97908.19;7067188;28;20272;-78
2023/03/24 12:15:53;;;;;;;1.33;1.30;;;;;;;19.93;44.69;97903.91;7051187;28;20196;-78
2023/03/24 12:19:28;;;;;;;1.00;1.00;;;;;;;19.90;43.58;97890.78;7050808;28;20195;-76
2023/03/24 12:22:58;;;;;;;0.93;0.93;;;;;;;20.19;43.45;97883.44;7050898;28;20258;-76
2023/03/24 12:26:23;;;;;;;1.00;1.00;;;;;;;20.30;42.53;97907.72;7050721;28;20189;-75
2023/03/24 12:29:56;;;;;;;1.07;1.07;;;;;;;20.34;42.26;97895.06;7050855;28;20627;-76
2023/03/24 12:33:28;;;;;;;1.10;1.00;;;;;;;20.63;41.42;97893.09;7051205;28;20634;-76
2023/03/24 12:36:54;;;;;;;0.80;0.80;;;;;;;20.32;41.09;97853.47;7050723;28;20279;-76
2023/03/24 12:40:34;;;;;;;1.57;1.40;;;;;;;20.64;41.64;97891.19;7050542;28;20200;-76
2023/03/24 12:44:09;;;;;;;1.63;0.90;;;;;;;20.39;41.73;97897.75;7050556;28;20223;-76
2023/03/24 12:47:43;;;;;;;1.63;1.30;;;;;;;19.94;42.69;97913.75;7050559;28;20333;-75
2023/03/24 12:51:16;;;;;;;0.90;0.90;;;;;;;19.72;42.80;97914.19;7059263;28;20604;-76
2023/03/24 12:54:46;;;;;;;0.93;0.93;;;;;;;19.33;43.41;97909.81;7074544;28;20286;-75
2023/03/24 12:58:13;;;;;;;1.10;1.10;;;;;;;19.94;42.62;97906.34;7079068;28;20195;-76
2023/03/24 13:01:37;;;;;;;0.90;0.90;;;;;;;19.49;43.77;97919.53;7078277;28;20684;-76
2023/03/24 13:05:04;;;;;;;1.10;1.10;;;;;;;20.12;42.94;97888.44;7078547;28;20622;-79
2023/03/24 13:08:29;;;;;;;1.03;1.03;;;;;;;20.22;42.67;97891.88;7057205;28;20666;-78
2023/03/24 13:11:56;;;;;;;1.17;1.00;;;;;;;20.23;42.16;97889.97;7051158;28;20331;-80
2023/03/24 13:15:21;;;;;;;0.83;0.83;;;;;;;19.70;43.90;97889.03;7069814;27;20201;-78
2023/03/24 13:18:44;;;;;;;2.20;1.13;;;;;;;20.08;42.76;97858.09;7079742;27;20211;-80
2023/03/24 13:22:11;;;;;;;1.00;1.00;;;;;;;19.98;43.75;97873.78;7077577;27;20358;-78
2023/03/24 13:25:45;;;;;;;1.30;1.30;;;;;;;20.33;42.80;97866.03;7083621;27;20203;-79
2023/03/24 13:29:14;;;;;;;1.10;0.97;;;;;;;20.08;42.88;97877.25;7054808;28;20265;-79
2023/03/24 13:32:40;;;;;;;1.03;1.03;;;;;;;20.14;43.13;97878.00;7055990;28;20224;-82
2023/03/24 13:36:18;;;;;;;1.07;1.07;;;;;;;19.98;43.54;97854.63;7065981;27;20833;-81
2023/03/24 13:39:43;;;;;;;1.13;1.03;;;;;;;19.88;43.67;97860.19;7080827;27;20194;-79
2023/03/24 13:43:10;;;;;;;1.00;1.00;;;;;;;19.44;44.19;97878.56;7080983;27;20220;-79
2023/03/24 13:46:36;;;;;;;1.20;1.20;;;;;;;19.23;44.69;97890.75;7082187;27;20786;-79
2023/03/24 13:50:00;;;;;;;1.13;1.13;;;;;;;19.26;45.19;97884.69;7071226;27;20690;-79
2023/03/24 13:53:32;;;;;;;2.10;1.30;;;;;;;19.50;45.53;97910.22;7082160;27;20278;-79
2023/03/24 13:56:55;;;;;;;1.40;1.30;;;;;;;18.23;48.53;97919.16;7077267;27;20325;-79
2023/03/24 14:00:19;;;;;;;2.13;1.60;;;;;;;17.94;50.30;97920.00;7082719;27;20237;-84
2023/03/24 14:03:43;;;;;;;2.13;1.70;;;;;;;17.45;52.11;97935.25;7084391;27;20235;-81
2023/03/24 14:07:29;;;;;;;3.43;2.10;;;;;;;17.07;53.85;97911.97;7076619;27;20200;-79
2023/03/24 14:10:51;;;;;;;3.43;1.87;;;;;;;17.56;52.58;97929.53;7080755;27;20937;-79
2023/03/24 14:14:22;;;;;;;2.97;2.00;;;;;;;17.35;53.06;97922.34;7082841;27;20382;-79
2023/03/24 14:17:45;;;;;;;4.00;1.70;;;;;;;17.17;54.03;97917.41;7082818;27;20258;-79
2023/03/24 14:21:08;;;;;;;3.43;2.10;;;;;;;18.09;51.89;97928.16;7081276;27;20199;-79
2023/03/24 14:24:31;;;;;;;2.13;1.93;;;;;;;18.26;51.40;97925.97;7081640;27;20267;-79
2023/03/24 14:27:54;;;;;;;3.30;1.80;;;;;;;18.01;51.95;97937.75;7081731;27;20822;-79
2023/03/24 14:31:27;;;;;;;1.97;1.70;;;;;;;18.28;50.88;97942.91;7081320;27;20287;-79
2023/03/24 14:34:55;;;;;;;2.73;2.10;;;;;;;18.44;51.01;97959.00;7082254;27;20199;-79
2023/03/24 14:38:22;;;;;;;4.60;2.43;;;;;;;17.86;54.82;97954.09;7083070;27;20869;-80
2023/03/24 14:41:46;;;;;;;2.30;1.87;;;;;;;17.66;54.64;97962.25;7082986;27;20228;-79
2023/03/24 14:45:39;;;;;;;3.93;2.20;;;;;;;17.77;56.73;97957.63;7083020;27;20208;-80
2023/03/24 14:49:04;;;;;;;3.97;2.17;;;;;;;18.18;54.67;97957.38;7083995;27;20694;-80
2023/03/24 14:52:28;;;;;;;2.57;2.10;;;;;;;17.12;57.46;97958.28;7081682;27;20220;-80
2023/03/24 14:55:52;;;;;;;1.97;1.80;;;;;;;17.37;57.31;97961.06;7056432;28;20561;-79
2023/03/24 14:59:23;;;;;;;2.27;2.07;;;;;;;17.16;58.45;97947.66;7054943;28;20202;-79
2023/03/24 15:02:47;;;;;;;3.43;2.30;;;;;;;17.59;57.95;97958.97;7076015;27;20252;-80
2023/03/24 15:06:13;;;;;;;4.03;2.00;;;;;;;17.21;58.60;97944.97;7083494;27;20207;-85
2023/03/24 15:09:37;;;;;;;2.10;1.50;;;;;;;17.03;57.49;97951.69;7083682;27;20286;-81
2023/03/24 15:13:00;;;;;;;1.70;1.60;;;;;;;16.69;58.54;97955.88;7064095;27;20228;-80
2023/03/24 15:16:24;;;;;;;2.07;1.80;;;;;;;16.88;58.84;97967.16;7072014;27;20291;-81
2023/03/24 15:19:49;;;;;;;1.87;1.50;;;;;;;17.13;58.19;97956.34;7081803;27;20207;-80
2023/03/24 15:23:17;;;;;;;3.10;1.90;;;;;;;17.48;57.90;97961.94;7058382;27;20229;-81
2023/03/24 15:26:38;;;;;;;1.80;1.70;;;;;;;17.09;58.89;97949.78;7052555;28;20336;-81
2023/03/24 15:30:01;;;;;;;1.90;1.80;;;;;;;17.27;58.30;97936.50;7052307;28;20208;-80
2023/03/24 15:33:24;;;;;;;2.03;1.93;;;;;;;17.07;58.67;97919.28;7051566;27;20251;-79
2023/03/24 15:36:49;;;;;;;3.23;1.80;;;;;;;17.11;59.35;97953.09;7053230;28;20211;-80
2023/03/24 15:40:32;;;;;;;3.93;1.70;;;;;;;16.95;60.05;97956.84;7076178;27;20283;-83
2023/03/24 15:43:54;;;;;;;2.00;1.80;;;;;;;16.42;61.83;97963.38;7078123;27;20270;-81
2023/03/24 15:47:20;;;;;;;2.40;2.10;;;;;;;16.54;61.64;97946.81;7081426;27;20344;-81
2023/03/24 15:50:55;;;;;;;3.70;2.43;;;;;;;17.11;59.44;97921.19;7085711;27;20462;-81
2023/03/24 15:54:21;;;;;;;3.07;2.00;;;;;;;16.92;59.71;97920.06;7080131;27;20216;-83
2023/03/24 15:57:43;;;;;;;1.97;1.40;;;;;;;16.16;62.07;97926.16;7077146;27;20295;-86
2023/03/24 16:01:05;;;;;;;2.00;1.73;;;;;;;16.83;60.08;97907.22;7066472;28;20250;-81
2023/03/24 16:04:29;;;;;;;3.03;1.70;;;;;;;16.55;60.23;97905.75;7078986;28;20248;-86
2023/03/24 16:07:57;;;;;;;1.83;1.50;;;;;;;17.03;59.01;97910.84;7075484;28;20203;-83